Terminal Aerodrome Forecast
Issued by NWS

Home | Current Version | Previous Version | Text Only | Print | Product List | Glossary On
Versions: 1 2 3 4 5 6 7 8 9 10 11 12 13
000
FTAK31 PAJN 291738
TAFAWG
TAF
PAWG 291738Z 2918/3018 VRB05KT P6SM VCSH SCT015 BKN030 OVC045
     FM300000 25005KT P6SM -SHRA SCT015 OVC025
     FM300600 VRB03KT P6SM VCSH FEW007 SCT015 OVC025
     FM300900 VRB02KT P6SM BKN007 BKN015 OVC025
     FM301600 30005KT P6SM SCT015 BKN025 OVC040
      AMD LTD TO CLD VIS AND WIND 3006/3015=

USA.gov is the U.S. government's official web portal to all federal, state and local government web resources and services.